Time;durP1;ratioP1;P1;durP2;ratioP2;P2;SDS_P1;SDS_P2;PMS_P1;PMS_P2;Temp;Humidity;BMP_temperature;BMP_pressure;BME280_temperature;BME280_humidity;BME280_pressure;Samples;Min_cycle;Max_cycle;Signal;HPM_P1;HPM_P2
2023/05/20 00:00:05;;;;;;;17.00;10.10;;;;;;;15.26;73.97;101646.79;107573;1253;108257;-65
2023/05/20 00:02:53;;;;;;;20.60;9.20;;;;;;;15.30;74.08;101652.39;107615;1253;99169;-67
2023/05/20 00:05:22;;;;;;;21.70;9.60;;;;;;;15.33;74.30;101650.45;107652;1254;99179;-66
2023/05/20 00:07:51;;;;;;;15.40;9.60;;;;;;;15.38;74.76;101648.05;107634;1254;113607;-65
2023/05/20 00:10:19;;;;;;;13.10;9.40;;;;;;;15.41;74.45;101648.66;107663;1251;109125;-66
2023/05/20 00:12:47;;;;;;;19.40;9.40;;;;;;;15.46;74.22;101650.86;107604;1251;108033;-67
2023/05/20 00:15:16;;;;;;;15.50;10.10;;;;;;;15.51;74.09;101649.00;107621;1251;99157;-67
2023/05/20 00:17:44;;;;;;;16.20;8.80;;;;;;;15.51;73.96;101647.21;107644;1251;99051;-65
2023/05/20 00:20:13;;;;;;;14.60;10.10;;;;;;;15.46;73.59;101645.11;107600;1251;113093;-66
2023/05/20 00:22:41;;;;;;;17.80;9.10;;;;;;;15.43;73.69;101649.88;107623;1251;109030;-67
2023/05/20 00:25:10;;;;;;;14.90;9.20;;;;;;;15.44;73.53;101644.09;107633;1251;107988;-67
2023/05/20 00:27:41;;;;;;;12.70;8.40;;;;;;;15.41;73.18;101649.23;107550;1254;99342;-69
2023/05/20 00:30:11;;;;;;;17.00;8.70;;;;;;;15.38;73.06;101642.30;107640;1251;99039;-68
2023/05/20 00:32:39;;;;;;;25.90;9.90;;;;;;;15.37;73.16;101641.27;107652;1251;113675;-67
2023/05/20 00:35:09;;;;;;;19.40;10.00;;;;;;;15.36;73.01;101643.77;107619;1251;109793;-67
2023/05/20 00:37:37;;;;;;;24.30;9.50;;;;;;;15.34;72.90;101640.43;107637;1251;108152;-67
2023/05/20 00:40:07;;;;;;;13.80;8.60;;;;;;;15.31;73.19;101637.64;107656;1251;99166;-67
2023/05/20 00:42:35;;;;;;;16.20;9.20;;;;;;;15.23;73.25;101637.34;107554;1257;99751;-66
2023/05/20 00:45:07;;;;;;;18.80;8.80;;;;;;;15.14;73.43;101639.96;107616;1251;113077;-68
2023/05/20 00:47:36;;;;;;;17.30;8.30;;;;;;;15.11;73.52;101636.98;107630;1251;110136;-68
2023/05/20 00:50:06;;;;;;;21.60;9.60;;;;;;;15.12;73.39;101641.46;107619;1251;107211;-66
2023/05/20 00:52:36;;;;;;;15.60;8.60;;;;;;;15.12;73.45;101638.23;107654;1251;99125;-65
2023/05/20 00:55:06;;;;;;;12.70;9.50;;;;;;;15.12;73.43;101640.95;107628;1251;99189;-66
2023/05/20 00:57:35;;;;;;;22.90;8.60;;;;;;;15.13;73.54;101642.45;107619;1251;112243;-67
2023/05/20 01:00:04;;;;;;;15.70;8.80;;;;;;;15.14;73.47;101640.41;107589;1255;109147;-64
2023/05/20 01:02:33;;;;;;;14.90;8.80;;;;;;;15.12;73.59;101638.92;107614;1253;109020;-70
2023/05/20 01:05:02;;;;;;;13.90;8.10;;;;;;;15.06;73.76;101636.80;107605;1252;99214;-67
2023/05/20 01:07:31;;;;;;;17.20;8.90;;;;;;;14.96;73.90;101636.58;107611;1256;100817;-70
2023/05/20 01:10:00;;;;;;;16.70;8.70;;;;;;;14.87;74.23;101631.45;107646;1251;111572;-66
2023/05/20 01:12:45;;;;;;;19.20;8.80;;;;;;;14.81;74.06;101630.60;107622;1251;107824;-67
2023/05/20 01:15:15;;;;;;;12.40;8.40;;;;;;;14.78;73.98;101630.70;107654;1251;109169;-65
2023/05/20 01:17:50;;;;;;;17.70;9.10;;;;;;;14.79;74.10;101630.36;107613;1251;99802;-65
2023/05/20 01:20:20;;;;;;;14.60;8.80;;;;;;;14.81;74.59;101631.52;107558;1255;99068;-66
2023/05/20 01:22:56;;;;;;;18.80;9.10;;;;;;;14.79;74.38;101637.30;107627;1251;112938;-65
2023/05/20 01:25:27;;;;;;;12.30;8.10;;;;;;;14.80;74.41;101639.02;107594;1251;109693;-64
2023/05/20 01:27:57;;;;;;;18.70;9.10;;;;;;;14.81;74.39;101640.18;107569;1251;107770;-66
2023/05/20 01:30:34;;;;;;;17.40;9.00;;;;;;;14.81;74.28;101641.13;107613;1251;99178;-66
2023/05/20 01:33:10;;;;;;;16.40;8.70;;;;;;;14.80;74.37;101637.19;107603;1251;99227;-66
2023/05/20 01:35:40;;;;;;;23.60;10.20;;;;;;;14.79;74.55;101632.63;107574;1254;112644;-68
2023/05/20 01:38:10;;;;;;;19.60;8.20;;;;;;;14.73;74.75;101634.02;107652;1254;111410;-67
2023/05/20 01:40:40;;;;;;;16.00;8.50;;;;;;;14.68;75.14;101636.86;107569;1253;107098;-66
2023/05/20 01:43:09;;;;;;;14.60;8.10;;;;;;;14.64;75.37;101639.20;107581;1253;99197;-69
2023/05/20 01:45:41;;;;;;;14.70;8.10;;;;;;;14.59;75.33;101639.86;107611;1254;99121;-68
2023/05/20 01:48:11;;;;;;;15.30;7.80;;;;;;;14.50;75.92;101636.33;107582;1253;113745;-69
2023/05/20 01:50:39;;;;;;;13.20;8.60;;;;;;;14.43;76.26;101639.27;107590;1253;110185;-65
2023/05/20 01:53:08;;;;;;;15.70;8.10;;;;;;;14.38;76.50;101637.22;107600;1254;107779;-67
2023/05/20 01:55:36;;;;;;;13.70;8.40;;;;;;;14.33;77.19;101639.67;107575;1254;99160;-65
2023/05/20 01:58:05;;;;;;;11.70;7.90;;;;;;;14.28;77.09;101639.71;107579;1252;99801;-65
2023/05/20 02:00:34;;;;;;;18.20;8.90;;;;;;;14.27;77.57;101642.17;107601;1254;113558;-66
2023/05/20 02:03:04;;;;;;;15.10;8.50;;;;;;;14.23;77.89;101642.11;107557;1254;109875;-68
2023/05/20 02:05:35;;;;;;;12.00;8.40;;;;;;;14.20;77.84;101645.64;107568;1253;108190;-66
2023/05/20 02:08:05;;;;;;;15.80;8.60;;;;;;;14.20;77.52;101644.07;107629;1252;99186;-66
2023/05/20 02:10:33;;;;;;;15.10;8.70;;;;;;;14.23;77.46;101645.77;107588;1251;99224;-67
2023/05/20 02:13:02;;;;;;;18.90;8.20;;;;;;;14.23;77.52;101645.04;107616;1251;112822;-70
2023/05/20 02:15:31;;;;;;;16.00;8.60;;;;;;;14.21;77.98;101640.40;107439;1254;109914;-66
2023/05/20 02:17:59;;;;;;;21.90;8.50;;;;;;;14.19;77.69;101639.99;107582;1253;107237;-66
2023/05/20 02:20:30;;;;;;;18.50;8.70;;;;;;;14.18;77.71;101641.19;107537;1254;99207;-67
2023/05/20 02:22:58;;;;;;;17.40;8.90;;;;;;;14.17;77.63;101639.48;107587;1254;99832;-66
2023/05/20 02:25:26;;;;;;;20.10;8.90;;;;;;;14.16;77.40;101644.44;107623;1251;111795;-66
2023/05/20 02:27:55;;;;;;;16.10;8.30;;;;;;;14.17;77.95;101645.42;107618;1251;109651;-68
2023/05/20 02:30:24;;;;;;;14.70;9.10;;;;;;;14.18;78.04;101648.74;107574;1251;107947;-66
2023/05/20 02:32:53;;;;;;;15.90;9.40;;;;;;;14.18;78.36;101651.84;107590;1251;99304;-67
2023/05/20 02:35:21;;;;;;;14.90;8.60;;;;;;;14.14;78.78;101652.71;107632;1251;99082;-67
2023/05/20 02:37:50;;;;;;;11.40;8.40;;;;;;;14.09;79.38;101655.84;107661;1251;112385;-66
2023/05/20 02:40:18;;;;;;;17.90;9.50;;;;;;;14.04;80.55;101660.05;107585;1251;108918;-66
2023/05/20 02:42:47;;;;;;;15.30;8.60;;;;;;;13.99;81.21;101656.93;107587;1251;108162;-67
2023/05/20 02:45:15;;;;;;;20.90;13.30;;;;;;;13.97;81.68;101658.95;107642;1251;98920;-63
2023/05/20 02:47:45;;;;;;;19.40;10.50;;;;;;;13.97;81.90;101657.30;107603;1251;99156;-65
2023/05/20 02:50:14;;;;;;;15.90;9.70;;;;;;;13.98;82.26;101655.73;107631;1251;113638;-65
2023/05/20 02:52:44;;;;;;;21.30;9.60;;;;;;;14.00;82.28;101657.20;107637;1255;112457;-66
2023/05/20 02:55:13;;;;;;;21.40;9.80;;;;;;;14.03;82.44;101662.13;107586;1251;106999;-66
2023/05/20 02:57:41;;;;;;;15.50;9.50;;;;;;;14.04;82.78;101665.29;107607;1256;99261;-66
2023/05/20 03:00:12;;;;;;;23.90;13.50;;;;;;;14.06;82.82;101667.98;107612;1251;99837;-69
2023/05/20 03:02:43;;;;;;;15.20;10.20;;;;;;;14.08;82.43;101667.63;107620;1251;112521;-67
2023/05/20 03:05:11;;;;;;;19.10;11.20;;;;;;;14.12;82.56;101667.90;107641;1256;109505;-66
2023/05/20 03:07:40;;;;;;;16.70;9.70;;;;;;;14.15;81.91;101669.21;107608;1251;108012;-67
2023/05/20 03:10:09;;;;;;;20.90;10.00;;;;;;;14.21;81.85;101671.90;107565;1255;99195;-67
2023/05/20 03:12:39;;;;;;;17.80;10.20;;;;;;;14.29;82.04;101671.01;107584;1253;99294;-69
2023/05/20 03:15:10;;;;;;;20.80;9.40;;;;;;;14.36;81.57;101669.83;107607;1254;113060;-67
2023/05/20 03:17:38;;;;;;;16.70;10.00;;;;;;;14.44;81.47;101667.20;107551;1256;108718;-66
2023/05/20 03:20:07;;;;;;;16.20;9.70;;;;;;;14.46;81.62;101669.85;107572;1251;106461;-67
2023/05/20 03:22:36;;;;;;;16.90;9.00;;;;;;;14.46;81.59;101667.37;107583;1256;99112;-66
2023/05/20 03:25:06;;;;;;;15.80;10.20;;;;;;;14.46;81.79;101672.08;107550;1254;99054;-65
2023/05/20 03:27:36;;;;;;;15.00;9.40;;;;;;;14.45;81.96;101670.31;107570;1253;111968;-65
2023/05/20 03:30:06;;;;;;;16.00;9.40;;;;;;;14.48;81.72;101675.60;107612;1254;108213;-64
2023/05/20 03:32:34;;;;;;;14.20;9.10;;;;;;;14.50;81.84;101678.48;107635;1251;108630;-65
2023/05/20 03:35:03;;;;;;;17.80;10.20;;;;;;;14.53;81.96;101680.06;107568;1254;99163;-65
2023/05/20 03:37:32;;;;;;;16.10;9.60;;;;;;;14.55;81.86;101684.23;107639;1251;99316;-65
2023/05/20 03:40:00;;;;;;;15.70;9.30;;;;;;;14.60;81.61;101676.77;107631;1251;113456;-69
2023/05/20 03:42:29;;;;;;;18.90;10.20;;;;;;;14.64;81.63;101676.95;107593;1251;110966;-69
2023/05/20 03:44:59;;;;;;;18.30;9.40;;;;;;;14.66;81.84;101676.16;107630;1256;106705;-65
2023/05/20 03:47:29;;;;;;;13.40;9.20;;;;;;;14.70;82.00;101679.13;107577;1255;99058;-67
2023/05/20 03:49:58;;;;;;;21.30;8.70;;;;;;;14.73;81.71;101679.55;107653;1256;99735;-66
2023/05/20 03:52:26;;;;;;;19.30;10.30;;;;;;;14.79;81.45;101679.75;107606;1254;113697;-66
2023/05/20 03:54:56;;;;;;;17.70;9.80;;;;;;;14.85;81.57;101687.44;107555;1251;109709;-68
2023/05/20 03:57:25;;;;;;;18.00;9.80;;;;;;;14.92;81.26;101685.02;107645;1254;108751;-69
2023/05/20 03:59:53;;;;;;;16.90;9.20;;;;;;;14.99;80.89;101681.50;107404;1254;99167;-68
2023/05/20 04:02:22;;;;;;;16.90;9.20;;;;;;;15.08;80.72;101683.59;107600;1251;99169;-67
2023/05/20 04:04:51;;;;;;;14.30;9.50;;;;;;;15.18;80.53;101685.19;107593;1251;113219;-68
2023/05/20 04:07:20;;;;;;;24.50;14.00;;;;;;;15.28;80.65;101687.48;107588;1251;109731;-66
2023/05/20 04:09:51;;;;;;;14.00;9.50;;;;;;;15.36;80.38;101686.89;107637;1251;107801;-65
2023/05/20 04:12:19;;;;;;;17.20;9.20;;;;;;;15.46;80.26;101690.63;107602;1251;99249;-65
2023/05/20 04:14:48;;;;;;;19.20;9.00;;;;;;;15.55;80.10;101686.42;107562;1251;99203;-64
2023/05/20 04:17:17;;;;;;;16.70;8.90;;;;;;;15.63;79.90;101687.09;107601;1251;115424;-66
2023/05/20 04:19:45;;;;;;;16.00;8.80;;;;;;;15.71;79.84;101689.94;107620;1251;109737;-65
2023/05/20 04:22:14;;;;;;;20.60;8.80;;;;;;;15.78;79.76;101692.17;107615;1257;108020;-66
2023/05/20 04:24:42;;;;;;;13.70;8.40;;;;;;;15.87;79.49;101693.17;107562;1254;99237;-67
2023/05/20 04:27:11;;;;;;;16.80;8.30;;;;;;;15.96;79.51;101692.21;107564;1254;99174;-67
2023/05/20 04:29:40;;;;;;;14.50;9.30;;;;;;;16.08;79.37;101699.84;107568;1251;112099;-67
2023/05/20 04:32:09;;;;;;;14.20;8.20;;;;;;;16.15;79.14;101698.81;107606;1251;108921;-63
2023/05/20 04:34:39;;;;;;;10.70;7.60;;;;;;;16.23;78.78;101694.76;107552;1256;107204;-68
2023/05/20 04:37:08;;;;;;;15.80;8.20;;;;;;;16.31;78.83;101691.19;107620;1255;99045;-69
2023/05/20 04:39:38;;;;;;;11.10;8.40;;;;;;;16.38;78.59;101691.44;107506;1256;99704;-67
2023/05/20 04:42:07;;;;;;;24.60;8.30;;;;;;;16.44;78.49;101694.48;107523;1256;112051;-68
2023/05/20 04:44:36;;;;;;;11.10;7.80;;;;;;;16.51;78.47;101696.70;107533;1253;110217;-66
2023/05/20 04:47:08;;;;;;;22.70;9.00;;;;;;;16.59;78.33;101700.27;107553;1256;107990;-68
2023/05/20 04:49:37;;;;;;;12.10;8.20;;;;;;;16.67;78.23;101700.38;107604;1254;99160;-67
2023/05/20 04:52:07;;;;;;;11.80;8.10;;;;;;;16.74;78.06;101707.79;107596;1254;99780;-68
2023/05/20 04:54:35;;;;;;;16.40;8.80;;;;;;;16.82;78.08;101702.84;107623;1255;112528;-67
2023/05/20 04:57:04;;;;;;;18.80;8.20;;;;;;;16.88;77.78;101700.37;107588;1253;108743;-69
2023/05/20 04:59:32;;;;;;;13.00;7.80;;;;;;;16.96;77.66;101697.37;107552;1255;108292;-71
2023/05/20 05:02:01;;;;;;;13.30;7.30;;;;;;;17.03;77.59;101700.25;107584;1254;99165;-68
2023/05/20 05:04:29;;;;;;;14.40;8.30;;;;;;;17.10;77.22;101706.02;107635;1256;99224;-68
2023/05/20 05:06:58;;;;;;;9.40;8.00;;;;;;;17.18;76.84;101705.94;107622;1255;112607;-68
2023/05/20 05:09:26;;;;;;;10.30;7.80;;;;;;;17.26;76.44;101706.30;107563;1254;109715;-69
2023/05/20 05:11:55;;;;;;;15.20;8.50;;;;;;;17.31;76.27;101705.92;107593;1254;107801;-69
2023/05/20 05:14:23;;;;;;;16.70;8.70;;;;;;;17.35;76.30;101711.46;107411;1255;99168;-69
2023/05/20 05:16:52;;;;;;;16.50;8.10;;;;;;;17.42;76.16;101706.65;107526;1251;99198;-69
2023/05/20 05:19:23;;;;;;;12.50;8.00;;;;;;;17.49;75.77;101707.48;107580;1252;112806;-70
2023/05/20 05:21:52;;;;;;;17.20;8.60;;;;;;;17.54;75.76;101704.83;107547;1254;109889;-72
2023/05/20 05:24:25;;;;;;;14.40;7.40;;;;;;;17.61;75.75;101704.64;107592;1251;108462;-71
2023/05/20 05:26:57;;;;;;;10.40;7.50;;;;;;;17.66;75.36;101700.52;107601;1255;99054;-72
2023/05/20 05:29:26;;;;;;;12.30;8.00;;;;;;;17.70;75.20;101705.76;107566;1256;99162;-73
2023/05/20 05:31:57;;;;;;;13.40;7.90;;;;;;;17.76;74.85;101705.15;107616;1251;113731;-69
2023/05/20 05:34:30;;;;;;;15.80;8.00;;;;;;;17.82;74.08;101703.16;107621;1251;109472;-71
2023/05/20 05:36:58;;;;;;;18.70;8.40;;;;;;;17.85;74.13;101699.65;107575;1255;107819;-73
2023/05/20 05:39:28;;;;;;;14.60;8.30;;;;;;;17.91;73.82;101699.23;107471;1259;99067;-73
2023/05/20 05:41:57;;;;;;;12.60;8.00;;;;;;;17.94;73.32;101696.46;107643;1251;100833;-66
2023/05/20 05:44:25;;;;;;;11.30;7.90;;;;;;;18.01;73.49;101696.70;107572;1256;112867;-71
2023/05/20 05:46:54;;;;;;;25.20;8.40;;;;;;;18.07;73.11;101700.27;107523;1254;109610;-70
2023/05/20 05:49:25;;;;;;;15.00;7.80;;;;;;;18.08;72.85;101702.85;107594;1256;107662;-67
2023/05/20 05:51:54;;;;;;;14.20;8.40;;;;;;;18.10;72.97;101703.38;107507;1251;99282;-69
2023/05/20 05:54:23;;;;;;;17.70;8.40;;;;;;;18.15;72.51;101704.26;107623;1257;99185;-70
2023/05/20 05:56:55;;;;;;;23.50;8.40;;;;;;;18.18;72.37;101705.15;107562;1257;113867;-68
2023/05/20 05:59:24;;;;;;;12.30;8.00;;;;;;;18.19;72.48;101704.23;107564;1254;108982;-68
2023/05/20 06:01:53;;;;;;;20.30;7.70;;;;;;;18.27;72.66;101703.02;107581;1254;107670;-68
2023/05/20 06:04:21;;;;;;;13.40;8.30;;;;;;;18.38;72.49;101706.25;107533;1253;99159;-69
2023/05/20 06:06:52;;;;;;;19.30;8.00;;;;;;;18.47;71.96;101706.00;107619;1256;99083;-67
2023/05/20 06:09:20;;;;;;;16.90;7.70;;;;;;;18.54;72.02;101708.16;107585;1251;113962;-66
2023/05/20 06:11:49;;;;;;;17.00;8.00;;;;;;;18.65;71.89;101707.38;107547;1256;109669;-67
2023/05/20 06:14:17;;;;;;;15.30;8.50;;;;;;;18.77;71.37;101703.25;107533;1257;106248;-67
2023/05/20 06:16:46;;;;;;;20.80;7.90;;;;;;;18.83;70.65;101703.94;107561;1254;99226;-67
2023/05/20 06:19:15;;;;;;;14.40;8.40;;;;;;;18.87;70.66;101700.00;107496;1254;99047;-66
2023/05/20 06:21:47;;;;;;;23.60;8.40;;;;;;;18.93;70.09;101697.20;107596;1251;111899;-66
2023/05/20 06:24:16;;;;;;;14.00;8.30;;;;;;;18.97;69.88;101694.13;107524;1257;109693;-67
2023/05/20 06:26:58;;;;;;;9.30;7.50;;;;;;;19.02;70.22;101695.90;107520;1255;107449;-65
2023/05/20 06:29:28;;;;;;;11.90;7.80;;;;;;;19.09;70.17;101695.38;107621;1256;99139;-64
2023/05/20 06:31:56;;;;;;;11.40;8.00;;;;;;;19.20;69.63;101693.98;107607;1251;99239;-66
2023/05/20 06:34:25;;;;;;;15.50;7.10;;;;;;;19.28;69.62;101694.54;107554;1254;113430;-67
2023/05/20 06:36:54;;;;;;;9.80;7.20;;;;;;;19.39;69.11;101693.58;107595;1257;109323;-69
2023/05/20 06:39:24;;;;;;;17.00;7.90;;;;;;;19.46;68.92;101690.00;107588;1254;107472;-69
2023/05/20 06:41:52;;;;;;;12.60;8.40;;;;;;;19.52;68.61;101691.79;107626;1254;99266;-70
2023/05/20 06:44:29;;;;;;;16.10;8.10;;;;;;;19.58;68.18;101689.02;107590;1251;99749;-69
2023/05/20 06:47:14;;;;;;;18.60;9.30;;;;;;;19.61;67.69;101697.55;107625;1256;113522;-70
2023/05/20 06:49:44;;;;;;;14.70;7.60;;;;;;;19.58;67.93;101699.56;107607;1251;108766;-70
2023/05/20 06:52:15;;;;;;;43.00;28.50;;;;;;;19.56;67.80;101698.81;107484;1254;108439;-70
2023/05/20 06:54:45;;;;;;;23.10;11.50;;;;;;;19.53;67.68;101701.89;107610;1257;99233;-68
2023/05/20 06:57:14;;;;;;;20.10;9.10;;;;;;;19.49;67.90;101707.23;107475;1254;98466;-66
2023/05/20 06:59:43;;;;;;;19.60;8.90;;;;;;;19.43;67.62;101703.06;107488;1257;111124;-66
2023/05/20 07:02:11;;;;;;;11.80;7.50;;;;;;;19.37;67.72;101702.98;107535;1254;109869;-68
2023/05/20 07:04:40;;;;;;;16.10;8.10;;;;;;;19.34;67.89;101708.73;107612;1254;108759;-66
2023/05/20 07:07:08;;;;;;;14.20;7.60;;;;;;;19.33;67.86;101708.66;107529;1254;99252;-66
2023/05/20 07:09:37;;;;;;;16.90;8.50;;;;;;;19.38;68.29;101709.40;107667;1253;99182;-67
2023/05/20 07:12:06;;;;;;;13.70;8.00;;;;;;;19.48;68.35;101705.75;107539;1254;111452;-68
2023/05/20 07:14:35;;;;;;;18.70;8.20;;;;;;;19.59;67.76;101707.27;107571;1255;108669;-66
2023/05/20 07:17:05;;;;;;;15.30;8.00;;;;;;;19.63;67.36;101711.30;107591;1251;108835;-66
2023/05/20 07:19:33;;;;;;;19.50;7.60;;;;;;;19.79;67.35;101711.23;107588;1251;99362;-66
2023/05/20 07:22:02;;;;;;;11.80;7.50;;;;;;;19.96;66.73;101710.01;107605;1251;99683;-69
2023/05/20 07:24:52;;;;;;;15.70;7.50;;;;;;;20.18;66.48;101704.55;107241;1254;113279;-65
2023/05/20 07:27:20;;;;;;;16.10;7.80;;;;;;;20.42;66.46;101706.02;107726;1251;107974;-63
2023/05/20 07:29:49;;;;;;;16.80;8.50;;;;;;;20.66;65.37;101710.33;107596;1251;109316;-65
2023/05/20 07:32:18;;;;;;;9.90;7.40;;;;;;;20.84;64.55;101718.70;107617;1251;99231;-68
2023/05/20 07:34:46;;;;;;;18.30;8.60;;;;;;;20.89;63.87;101716.51;107611;1251;99700;-66
2023/05/20 07:37:15;;;;;;;12.80;8.20;;;;;;;20.93;63.24;101713.45;107597;1254;113332;-67
2023/05/20 07:39:43;;;;;;;13.10;7.80;;;;;;;21.06;62.80;101720.11;107705;1254;108190;-67
2023/05/20 07:42:12;;;;;;;12.50;8.00;;;;;;;21.22;62.68;101716.90;107628;1251;107996;-63
2023/05/20 07:44:44;;;;;;;13.00;7.10;;;;;;;21.40;62.58;101710.79;107547;1257;99210;-68
2023/05/20 07:47:13;;;;;;;16.90;8.10;;;;;;;21.62;61.68;101711.09;107686;1251;99392;-66
2023/05/20 07:49:45;;;;;;;16.80;8.50;;;;;;;21.71;61.22;101707.30;107664;1254;112757;-68
2023/05/20 07:52:17;;;;;;;20.90;8.10;;;;;;;21.72;60.81;101712.09;107583;1254;110173;-69
2023/05/20 07:54:49;;;;;;;21.80;7.80;;;;;;;21.77;60.29;101712.91;107592;1254;108329;-72
2023/05/20 07:57:21;;;;;;;15.00;7.60;;;;;;;21.85;60.03;101712.27;107600;1251;99167;-69
2023/05/20 07:59:52;;;;;;;13.70;8.00;;;;;;;21.98;60.40;101710.90;105251;1251;3148092;-73
2023/05/20 08:02:21;;;;;;;13.70;7.70;;;;;;;22.11;59.57;101711.67;107571;1254;109469;-67
2023/05/20 08:04:50;;;;;;;28.00;8.20;;;;;;;22.06;59.13;101711.89;107626;1254;106815;-67
2023/05/20 08:07:19;;;;;;;13.60;7.60;;;;;;;22.08;59.44;101707.75;107628;1251;99139;-68
2023/05/20 08:09:52;;;;;;;13.60;7.80;;;;;;;22.17;59.45;101706.60;107635;1251;99254;-68
2023/05/20 08:12:21;;;;;;;13.50;7.70;;;;;;;22.32;58.90;101705.30;107590;1251;112205;-68
2023/05/20 08:14:50;;;;;;;19.20;8.10;;;;;;;22.42;58.29;101706.81;107718;1251;110171;-71
2023/05/20 08:17:19;;;;;;;21.50;11.40;;;;;;;22.51;58.45;101710.95;107538;1251;106964;-66
2023/05/20 08:19:48;;;;;;;18.60;10.60;;;;;;;22.62;58.22;101713.60;107517;1251;99275;-67
2023/05/20 08:22:17;;;;;;;11.30;8.10;;;;;;;22.72;57.68;101712.54;107434;1251;99688;-68
2023/05/20 08:24:50;;;;;;;16.10;7.40;;;;;;;22.80;57.33;101706.62;107526;1254;114198;-70
2023/05/20 08:27:19;;;;;;;13.40;8.20;;;;;;;22.91;56.24;101707.08;107636;1254;110271;-67
2023/05/20 08:29:48;;;;;;;15.80;8.10;;;;;;;22.84;56.16;101700.58;107516;1254;108989;-68
2023/05/20 08:32:19;;;;;;;19.20;8.30;;;;;;;22.80;56.45;101704.21;107530;1254;99183;-66
2023/05/20 08:34:48;;;;;;;12.80;7.70;;;;;;;22.80;56.82;101703.54;107540;1254;99720;-67
2023/05/20 08:37:16;;;;;;;13.10;8.00;;;;;;;22.80;56.70;101703.50;107501;1251;113218;-69
2023/05/20 08:39:47;;;;;;;12.20;7.40;;;;;;;22.81;56.07;101703.35;107553;1251;110313;-67
2023/05/20 08:42:21;;;;;;;11.20;7.10;;;;;;;22.85;56.04;101702.70;107577;1251;107267;-69
2023/05/20 08:44:51;;;;;;;12.60;7.40;;;;;;;22.86;56.37;101706.84;107543;1251;99140;-67
2023/05/20 08:47:21;;;;;;;13.20;8.30;;;;;;;22.93;56.29;101707.00;107681;1256;99709;-69
2023/05/20 08:49:49;;;;;;;19.60;7.10;;;;;;;23.06;56.21;101706.32;107538;1254;112696;-66
2023/05/20 08:52:21;;;;;;;10.10;7.40;;;;;;;23.15;56.07;101705.52;107581;1252;110089;-67
2023/05/20 08:54:51;;;;;;;10.20;7.10;;;;;;;23.22;55.72;101698.23;107626;1254;108174;-68
2023/05/20 08:57:20;;;;;;;14.50;7.40;;;;;;;23.34;55.54;101706.81;107656;1251;99172;-69
2023/05/20 08:59:49;;;;;;;17.20;7.70;;;;;;;23.42;55.01;101705.22;107620;1256;99105;-67
2023/05/20 09:02:18;;;;;;;9.80;8.00;;;;;;;23.49;55.04;101704.73;107518;1251;113113;-72
2023/05/20 09:04:46;;;;;;;13.60;7.00;;;;;;;23.54;54.63;101703.04;107586;1251;109785;-69
2023/05/20 09:07:28;;;;;;;24.70;7.60;;;;;;;23.61;54.96;101701.65;107579;1251;106595;-67
2023/05/20 09:09:57;;;;;;;8.70;6.50;;;;;;;23.79;54.95;101696.77;107580;1251;99185;-67
2023/05/20 09:12:25;;;;;;;12.90;7.50;;;;;;;24.05;54.46;101692.98;107575;1254;99126;-67
2023/05/20 09:14:54;;;;;;;16.00;7.00;;;;;;;24.31;53.94;101691.52;107546;1253;112666;-69
2023/05/20 09:17:25;;;;;;;11.40;6.70;;;;;;;24.51;53.33;101687.66;107614;1254;109160;-70
2023/05/20 09:19:57;;;;;;;18.50;7.70;;;;;;;24.71;52.29;101689.79;107598;1256;108609;-71
2023/05/20 09:22:32;;;;;;;15.30;7.00;;;;;;;24.84;52.28;101687.98;107508;1257;99284;-70
2023/05/20 09:25:12;;;;;;;7.90;5.90;;;;;;;25.20;51.43;101684.23;107497;1255;99201;-73
2023/05/20 09:27:43;;;;;;;14.20;6.50;;;;;;;25.51;50.74;101684.20;107495;1250;113099;-68
2023/05/20 09:30:12;;;;;;;13.60;7.00;;;;;;;25.85;50.59;101677.59;107541;1254;110033;-68
2023/05/20 09:32:41;;;;;;;13.70;6.80;;;;;;;26.22;48.66;101671.77;107545;1251;107983;-69
2023/05/20 09:35:13;;;;;;;12.80;7.20;;;;;;;26.39;48.16;101668.67;107521;1251;99193;-69
2023/05/20 09:37:43;;;;;;;25.30;6.30;;;;;;;26.68;48.52;101669.66;107610;1251;99181;-68
2023/05/20 09:40:14;;;;;;;13.10;6.20;;;;;;;27.04;48.12;101668.73;107600;1251;113684;-66
2023/05/20 09:42:55;;;;;;;12.30;6.90;;;;;;;27.35;46.59;101666.98;107499;1251;108729;-67
2023/05/20 09:45:23;;;;;;;28.60;7.50;;;;;;;27.59;46.15;101661.92;107595;1256;107662;-66
2023/05/20 09:47:53;;;;;;;11.10;6.60;;;;;;;27.78;45.12;101655.59;107529;1250;99169;-70
2023/05/20 09:50:24;;;;;;;10.30;6.00;;;;;;;28.08;45.20;101651.05;107534;1251;99038;-69
2023/05/20 09:52:55;;;;;;;10.30;6.60;;;;;;;28.34;44.35;101648.76;107572;1254;111586;-69
2023/05/20 09:55:24;;;;;;;13.70;6.80;;;;;;;28.59;44.69;101646.23;107515;1251;109417;-72
2023/05/20 09:57:53;;;;;;;16.80;6.20;;;;;;;28.95;43.03;101634.52;107533;1254;109036;-69
2023/05/20 10:00:22;;;;;;;13.40;6.00;;;;;;;29.18;42.51;101631.10;107629;1251;99183;-69
2023/05/20 10:02:51;;;;;;;10.40;5.80;;;;;;;29.45;41.78;101627.98;107532;1251;99180;-68
2023/05/20 10:05:34;;;;;;;16.70;8.10;;;;;;;29.73;41.22;101620.88;107554;1251;112612;-68
2023/05/20 10:08:06;;;;;;;7.70;5.80;;;;;;;30.22;41.00;101619.35;107563;1251;108588;-67
2023/05/20 10:10:53;;;;;;;13.30;6.40;;;;;;;30.78;38.23;101615.09;107527;1251;108772;-68
2023/05/20 10:13:44;;;;;;;15.10;6.10;;;;;;;31.05;38.60;101609.02;107497;1251;99054;-68
2023/05/20 10:16:23;;;;;;;8.30;6.10;;;;;;;31.21;37.59;101607.16;107596;1251;99242;-71
2023/05/20 10:18:57;;;;;;;12.50;5.10;;;;;;;31.61;37.19;101602.96;107501;1251;113878;-68
2023/05/20 10:21:26;;;;;;;20.50;7.70;;;;;;;31.99;35.85;101600.77;107607;1251;108885;-67
2023/05/20 10:24:05;;;;;;;10.30;5.90;;;;;;;32.27;36.36;101597.36;107508;1254;108704;-68
2023/05/20 10:26:38;;;;;;;10.80;5.40;;;;;;;32.73;36.64;101593.89;107641;1254;99265;-67
2023/05/20 10:29:17;;;;;;;11.60;5.50;;;;;;;33.27;35.11;101589.49;107610;1251;99703;-66
2023/05/20 10:31:52;;;;;;;18.20;5.30;;;;;;;33.65;33.69;101589.09;107550;1251;112498;-67
2023/05/20 10:34:22;;;;;;;13.00;4.50;;;;;;;33.78;33.68;101581.48;107616;1252;110318;-67
2023/05/20 10:36:53;;;;;;;17.60;6.10;;;;;;;34.07;33.57;101577.59;107639;1254;109017;-67
2023/05/20 10:39:29;;;;;;;11.40;5.00;;;;;;;34.39;32.82;101577.02;107588;1254;99102;-68
2023/05/20 10:42:10;;;;;;;13.80;5.10;;;;;;;34.69;32.49;101570.05;107560;1252;99694;-68
2023/05/20 10:44:42;;;;;;;9.80;4.80;;;;;;;34.88;32.06;101569.54;107617;1256;112949;-67
2023/05/20 10:47:12;;;;;;;14.00;5.00;;;;;;;34.97;30.98;101566.20;107655;1253;109229;-67
2023/05/20 10:49:53;;;;;;;9.30;4.80;;;;;;;34.66;30.76;101558.88;107600;1254;107707;-66
2023/05/20 10:52:22;;;;;;;7.80;4.50;;;;;;;34.91;31.48;101554.94;107613;1251;99169;-67
2023/05/20 10:54:58;;;;;;;14.90;4.10;;;;;;;34.47;31.03;101550.76;107591;1251;100864;-67
2023/05/20 10:57:27;;;;;;;8.70;4.00;;;;;;;34.49;31.80;101543.84;107710;1251;113977;-66
2023/05/20 10:59:55;;;;;;;7.70;4.20;;;;;;;34.84;30.93;101541.64;107625;1254;110150;-67
2023/05/20 11:02:27;;;;;;;8.60;4.80;;;;;;;35.40;30.53;101537.88;107639;1251;107592;-66
2023/05/20 11:04:58;;;;;;;7.40;4.30;;;;;;;35.69;28.72;101530.48;107584;1254;99192;-68
2023/05/20 11:07:28;;;;;;;8.00;4.80;;;;;;;35.56;29.22;101528.47;107626;1251;99165;-68
2023/05/20 11:09:57;;;;;;;11.50;4.10;;;;;;;34.95;29.31;101518.59;107590;1251;111756;-67
2023/05/20 11:12:26;;;;;;;9.80;4.20;;;;;;;35.12;29.31;101507.20;107648;1251;108516;-68
2023/05/20 11:14:55;;;;;;;17.80;5.00;;;;;;;35.64;26.58;101502.52;107482;1254;107058;-68
2023/05/20 11:17:23;;;;;;;17.80;4.60;;;;;;;35.57;26.84;101499.98;107465;1253;99211;-71